Auburndale, Massachusetts
Current Conditions -  °F | °C
As of 9:54 AM on Tuesday 21 Oct 2014 (Local Time) from KBOS Reporting Station
Overcast Overcast  
Wind Chill: 14°   Ceiling: 9000
Heat Index: 14°   Visibility: 10mi
Dew Point: 12°   Wind: 7mph
Humidity: 84%   Direction: 130°SE
Pressure: 29.97"   Gusts: NA
Location:  42.35°N, 70.95°W
Report Text: KBOS 211354Z 13006KT 10SM FEW031 SCT055 BKN090 OVC250 14/12 A2997 RMK AO2 SLP149 T01440117
Loading
Personal Weather Stations






























Interactive Weather Map
Tropical Storm Tracking
New forecast layout! Learn more

10-Day Weather Forecast

Advertisements
Track Severe Weather on mobile